sensor_id;sensor_type;location;lat;lon;timestamp;temperature;humidity
7174;DHT22;3628;48.654;8.932;2023-10-08T00:00:26;12.90;99.90
7174;DHT22;3628;48.654;8.932;2023-10-08T00:03:10;12.90;99.90
7174;DHT22;3628;48.654;8.932;2023-10-08T00:05:37;12.80;99.90
7174;DHT22;3628;48.654;8.932;2023-10-08T00:08:03;12.90;99.90
7174;DHT22;3628;48.654;8.932;2023-10-08T00:10:34;12.90;99.90
7174;DHT22;3628;48.654;8.932;2023-10-08T00:13:00;12.90;99.90
7174;DHT22;3628;48.654;8.932;2023-10-08T00:15:26;12.90;99.90
7174;DHT22;3628;48.654;8.932;2023-10-08T00:17:52;12.90;99.90
7174;DHT22;3628;48.654;8.932;2023-10-08T00:20:20;12.80;99.90
7174;DHT22;3628;48.654;8.932;2023-10-08T00:22:51;12.80;99.90
7174;DHT22;3628;48.654;8.932;2023-10-08T00:25:20;12.80;99.90
7174;DHT22;3628;48.654;8.932;2023-10-08T00:27:45;12.80;99.90
7174;DHT22;3628;48.654;8.932;2023-10-08T00:30:15;12.80;99.90
7174;DHT22;3628;48.654;8.932;2023-10-08T00:32:44;12.70;99.90
7174;DHT22;3628;48.654;8.932;2023-10-08T00:35:10;12.70;99.90
7174;DHT22;3628;48.654;8.932;2023-10-08T00:37:46;12.70;99.90
7174;DHT22;3628;48.654;8.932;2023-10-08T00:40:13;12.60;99.90
7174;DHT22;3628;48.654;8.932;2023-10-08T00:42:46;12.60;99.90
7174;DHT22;3628;48.654;8.932;2023-10-08T00:45:12;12.60;99.90
7174;DHT22;3628;48.654;8.932;2023-10-08T00:47:42;12.60;99.90
7174;DHT22;3628;48.654;8.932;2023-10-08T00:50:11;12.60;99.90
7174;DHT22;3628;48.654;8.932;2023-10-08T00:52:50;12.60;99.90
7174;DHT22;3628;48.654;8.932;2023-10-08T00:55:27;12.60;99.90
7174;DHT22;3628;48.654;8.932;2023-10-08T00:57:57;12.60;99.90
7174;DHT22;3628;48.654;8.932;2023-10-08T01:00:25;12.70;99.90
7174;DHT22;3628;48.654;8.932;2023-10-08T01:03:05;12.70;99.90
7174;DHT22;3628;48.654;8.932;2023-10-08T01:05:40;12.80;99.90
7174;DHT22;3628;48.654;8.932;2023-10-08T01:08:14;12.90;99.90
7174;DHT22;3628;48.654;8.932;2023-10-08T01:10:44;12.90;99.90
7174;DHT22;3628;48.654;8.932;2023-10-08T01:13:12;12.90;99.90
7174;DHT22;3628;48.654;8.932;2023-10-08T01:15:45;13.00;99.90
7174;DHT22;3628;48.654;8.932;2023-10-08T01:18:13;13.00;99.90
7174;DHT22;3628;48.654;8.932;2023-10-08T01:20:44;13.10;99.90
7174;DHT22;3628;48.654;8.932;2023-10-08T01:23:12;13.00;99.90
7174;DHT22;3628;48.654;8.932;2023-10-08T01:25:48;13.10;99.90
7174;DHT22;3628;48.654;8.932;2023-10-08T01:28:18;13.10;99.90
7174;DHT22;3628;48.654;8.932;2023-10-08T01:30:58;13.10;99.90
7174;DHT22;3628;48.654;8.932;2023-10-08T01:33:30;13.10;99.90
7174;DHT22;3628;48.654;8.932;2023-10-08T01:35:57;13.00;99.90
7174;DHT22;3628;48.654;8.932;2023-10-08T01:38:29;13.00;99.90
7174;DHT22;3628;48.654;8.932;2023-10-08T01:40:56;13.00;99.90
7174;DHT22;3628;48.654;8.932;2023-10-08T01:43:22;13.00;99.90
7174;DHT22;3628;48.654;8.932;2023-10-08T01:45:48;13.00;99.90
7174;DHT22;3628;48.654;8.932;2023-10-08T01:48:17;12.90;99.90
7174;DHT22;3628;48.654;8.932;2023-10-08T01:50:49;12.90;99.90
7174;DHT22;3628;48.654;8.932;2023-10-08T01:53:15;13.00;99.90
7174;DHT22;3628;48.654;8.932;2023-10-08T01:55:42;13.00;99.90
7174;DHT22;3628;48.654;8.932;2023-10-08T01:58:15;12.90;99.90
7174;DHT22;3628;48.654;8.932;2023-10-08T02:00:48;12.90;99.90
7174;DHT22;3628;48.654;8.932;2023-10-08T02:03:15;12.90;99.90
7174;DHT22;3628;48.654;8.932;2023-10-08T02:05:42;12.90;99.90
7174;DHT22;3628;48.654;8.932;2023-10-08T02:08:10;12.80;99.90
7174;DHT22;3628;48.654;8.932;2023-10-08T02:10:37;12.70;99.90
7174;DHT22;3628;48.654;8.932;2023-10-08T02:13:03;12.70;99.90
7174;DHT22;3628;48.654;8.932;2023-10-08T02:15:30;12.60;99.90
7174;DHT22;3628;48.654;8.932;2023-10-08T02:17:55;12.60;99.90
7174;DHT22;3628;48.654;8.932;2023-10-08T02:20:22;12.50;99.90
7174;DHT22;3628;48.654;8.932;2023-10-08T02:22:47;12.50;99.90
7174;DHT22;3628;48.654;8.932;2023-10-08T02:25:16;12.50;99.90
7174;DHT22;3628;48.654;8.932;2023-10-08T02:27:42;12.40;99.90
7174;DHT22;3628;48.654;8.932;2023-10-08T02:30:08;12.40;99.90
7174;DHT22;3628;48.654;8.932;2023-10-08T02:32:35;12.30;99.90
7174;DHT22;3628;48.654;8.932;2023-10-08T02:35:02;12.30;99.90
7174;DHT22;3628;48.654;8.932;2023-10-08T02:37:28;12.20;99.90
7174;DHT22;3628;48.654;8.932;2023-10-08T02:39:54;12.20;99.90
7174;DHT22;3628;48.654;8.932;2023-10-08T02:42:20;12.20;99.90
7174;DHT22;3628;48.654;8.932;2023-10-08T02:44:47;12.20;99.90
7174;DHT22;3628;48.654;8.932;2023-10-08T02:47:13;12.10;99.90
7174;DHT22;3628;48.654;8.932;2023-10-08T02:49:46;12.10;99.90
7174;DHT22;3628;48.654;8.932;2023-10-08T02:52:16;12.10;99.90
7174;DHT22;3628;48.654;8.932;2023-10-08T02:54:42;12.10;99.90
7174;DHT22;3628;48.654;8.932;2023-10-08T02:57:08;12.10;99.90
7174;DHT22;3628;48.654;8.932;2023-10-08T02:59:40;12.10;99.90
7174;DHT22;3628;48.654;8.932;2023-10-08T03:02:10;11.90;99.90
7174;DHT22;3628;48.654;8.932;2023-10-08T03:04:43;11.90;99.90
7174;DHT22;3628;48.654;8.932;2023-10-08T03:07:13;11.80;99.90
7174;DHT22;3628;48.654;8.932;2023-10-08T03:09:47;11.80;99.90
7174;DHT22;3628;48.654;8.932;2023-10-08T03:12:15;11.80;99.90
7174;DHT22;3628;48.654;8.932;2023-10-08T03:14:42;11.70;99.90
7174;DHT22;3628;48.654;8.932;2023-10-08T03:17:15;11.70;99.90
7174;DHT22;3628;48.654;8.932;2023-10-08T03:19:46;11.60;99.90
7174;DHT22;3628;48.654;8.932;2023-10-08T03:22:12;11.60;99.90
7174;DHT22;3628;48.654;8.932;2023-10-08T03:24:38;11.60;99.90
7174;DHT22;3628;48.654;8.932;2023-10-08T03:27:05;11.50;99.90
7174;DHT22;3628;48.654;8.932;2023-10-08T03:29:46;11.50;99.90
7174;DHT22;3628;48.654;8.932;2023-10-08T03:32:13;11.50;99.90
7174;DHT22;3628;48.654;8.932;2023-10-08T03:34:47;11.50;99.90
7174;DHT22;3628;48.654;8.932;2023-10-08T03:37:18;11.50;99.90
7174;DHT22;3628;48.654;8.932;2023-10-08T03:39:54;11.50;99.90
7174;DHT22;3628;48.654;8.932;2023-10-08T03:42:26;11.40;99.90
7174;DHT22;3628;48.654;8.932;2023-10-08T03:44:59;11.40;99.90
7174;DHT22;3628;48.654;8.932;2023-10-08T03:47:38;11.40;99.90
7174;DHT22;3628;48.654;8.932;2023-10-08T03:50:07;11.30;99.90
7174;DHT22;3628;48.654;8.932;2023-10-08T03:52:38;11.30;99.90
7174;DHT22;3628;48.654;8.932;2023-10-08T03:55:07;11.20;99.90
7174;DHT22;3628;48.654;8.932;2023-10-08T03:57:44;11.10;99.90
7174;DHT22;3628;48.654;8.932;2023-10-08T04:00:14;11.00;99.90
7174;DHT22;3628;48.654;8.932;2023-10-08T04:02:45;10.90;99.90
7174;DHT22;3628;48.654;8.932;2023-10-08T04:05:21;10.90;99.90
7174;DHT22;3628;48.654;8.932;2023-10-08T04:07:53;10.80;99.90
7174;DHT22;3628;48.654;8.932;2023-10-08T04:10:24;10.80;99.90
7174;DHT22;3628;48.654;8.932;2023-10-08T04:13:09;10.70;99.90
7174;DHT22;3628;48.654;8.932;2023-10-08T04:15:35;10.70;99.90
7174;DHT22;3628;48.654;8.932;2023-10-08T04:18:06;10.60;99.90
7174;DHT22;3628;48.654;8.932;2023-10-08T04:20:32;10.60;99.90
7174;DHT22;3628;48.654;8.932;2023-10-08T04:22:59;10.60;99.90
7174;DHT22;3628;48.654;8.932;2023-10-08T04:25:28;10.60;99.90
7174;DHT22;3628;48.654;8.932;2023-10-08T04:27:58;10.60;99.90
7174;DHT22;3628;48.654;8.932;2023-10-08T04:30:33;10.50;99.90
7174;DHT22;3628;48.654;8.932;2023-10-08T04:33:02;10.50;99.90
7174;DHT22;3628;48.654;8.932;2023-10-08T04:35:39;10.50;99.90
7174;DHT22;3628;48.654;8.932;2023-10-08T04:38:16;10.50;99.90
7174;DHT22;3628;48.654;8.932;2023-10-08T04:40:50;10.50;99.90
7174;DHT22;3628;48.654;8.932;2023-10-08T04:43:23;10.50;99.90
7174;DHT22;3628;48.654;8.932;2023-10-08T04:46:02;10.50;99.90
7174;DHT22;3628;48.654;8.932;2023-10-08T04:48:44;10.50;99.90
7174;DHT22;3628;48.654;8.932;2023-10-08T04:51:09;10.50;99.90
7174;DHT22;3628;48.654;8.932;2023-10-08T04:53:38;10.50;99.90
7174;DHT22;3628;48.654;8.932;2023-10-08T04:56:11;10.50;99.90
7174;DHT22;3628;48.654;8.932;2023-10-08T04:58:43;10.50;99.90
7174;DHT22;3628;48.654;8.932;2023-10-08T05:01:15;10.50;99.90
7174;DHT22;3628;48.654;8.932;2023-10-08T05:03:48;10.50;99.90
7174;DHT22;3628;48.654;8.932;2023-10-08T05:06:34;10.50;99.90
7174;DHT22;3628;48.654;8.932;2023-10-08T05:09:06;10.50;99.90
7174;DHT22;3628;48.654;8.932;2023-10-08T05:11:52;10.60;99.90
7174;DHT22;3628;48.654;8.932;2023-10-08T05:14:20;10.60;99.90
7174;DHT22;3628;48.654;8.932;2023-10-08T05:17:00;10.60;99.90
7174;DHT22;3628;48.654;8.932;2023-10-08T05:19:29;10.60;99.90
7174;DHT22;3628;48.654;8.932;2023-10-08T05:22:13;10.50;99.90
7174;DHT22;3628;48.654;8.932;2023-10-08T05:24:59;10.50;99.90
7174;DHT22;3628;48.654;8.932;2023-10-08T05:27:38;10.40;99.90
7174;DHT22;3628;48.654;8.932;2023-10-08T05:30:30;10.40;99.90
7174;DHT22;3628;48.654;8.932;2023-10-08T05:33:08;10.40;99.90
7174;DHT22;3628;48.654;8.932;2023-10-08T05:35:51;10.30;99.90
7174;DHT22;3628;48.654;8.932;2023-10-08T05:38:23;10.30;99.90
7174;DHT22;3628;48.654;8.932;2023-10-08T05:40:52;10.30;99.90
7174;DHT22;3628;48.654;8.932;2023-10-08T05:43:35;10.30;99.90
7174;DHT22;3628;48.654;8.932;2023-10-08T05:46:01;10.30;99.90
7174;DHT22;3628;48.654;8.932;2023-10-08T05:48:45;10.40;99.90
7174;DHT22;3628;48.654;8.932;2023-10-08T05:51:16;10.30;99.90
7174;DHT22;3628;48.654;8.932;2023-10-08T05:53:59;10.30;99.90
7174;DHT22;3628;48.654;8.932;2023-10-08T05:56:28;10.30;99.90
7174;DHT22;3628;48.654;8.932;2023-10-08T05:58:54;10.30;99.90
7174;DHT22;3628;48.654;8.932;2023-10-08T06:01:40;10.30;99.90
7174;DHT22;3628;48.654;8.932;2023-10-08T06:04:07;10.40;99.90
7174;DHT22;3628;48.654;8.932;2023-10-08T06:06:50;10.40;99.90
7174;DHT22;3628;48.654;8.932;2023-10-08T06:09:36;10.50;99.90
7174;DHT22;3628;48.654;8.932;2023-10-08T06:12:03;10.50;99.90
7174;DHT22;3628;48.654;8.932;2023-10-08T06:14:45;10.60;99.90
7174;DHT22;3628;48.654;8.932;2023-10-08T06:17:29;10.70;99.90
7174;DHT22;3628;48.654;8.932;2023-10-08T06:20:22;10.80;99.90
7174;DHT22;3628;48.654;8.932;2023-10-08T06:22:51;10.80;99.90
7174;DHT22;3628;48.654;8.932;2023-10-08T06:25:19;10.90;99.90
7174;DHT22;3628;48.654;8.932;2023-10-08T06:27:49;11.00;99.90
7174;DHT22;3628;48.654;8.932;2023-10-08T06:30:19;11.00;99.90
7174;DHT22;3628;48.654;8.932;2023-10-08T06:32:44;11.10;99.90
7174;DHT22;3628;48.654;8.932;2023-10-08T06:35:11;11.20;99.90
7174;DHT22;3628;48.654;8.932;2023-10-08T06:37:46;11.30;99.90
7174;DHT22;3628;48.654;8.932;2023-10-08T06:40:15;11.50;99.90
7174;DHT22;3628;48.654;8.932;2023-10-08T06:42:59;11.60;99.90
7174;DHT22;3628;48.654;8.932;2023-10-08T06:45:36;11.70;99.90
7174;DHT22;3628;48.654;8.932;2023-10-08T06:48:01;11.80;99.90
7174;DHT22;3628;48.654;8.932;2023-10-08T06:50:34;11.90;99.90
7174;DHT22;3628;48.654;8.932;2023-10-08T06:53:01;11.90;99.90
7174;DHT22;3628;48.654;8.932;2023-10-08T06:55:36;12.00;99.90
7174;DHT22;3628;48.654;8.932;2023-10-08T06:58:02;12.20;99.90
7174;DHT22;3628;48.654;8.932;2023-10-08T07:00:34;12.30;99.90
7174;DHT22;3628;48.654;8.932;2023-10-08T07:03:11;12.40;99.90
7174;DHT22;3628;48.654;8.932;2023-10-08T07:05:41;12.60;99.90
7174;DHT22;3628;48.654;8.932;2023-10-08T07:08:07;12.70;99.90
7174;DHT22;3628;48.654;8.932;2023-10-08T07:10:33;12.90;99.90
7174;DHT22;3628;48.654;8.932;2023-10-08T07:13:02;13.00;99.90
7174;DHT22;3628;48.654;8.932;2023-10-08T07:15:29;13.10;99.90
7174;DHT22;3628;48.654;8.932;2023-10-08T07:17:56;13.30;99.90
7174;DHT22;3628;48.654;8.932;2023-10-08T07:20:22;13.50;99.90
7174;DHT22;3628;48.654;8.932;2023-10-08T07:22:48;13.70;99.90
7174;DHT22;3628;48.654;8.932;2023-10-08T07:25:22;13.90;99.90
7174;DHT22;3628;48.654;8.932;2023-10-08T07:27:48;14.30;99.90
7174;DHT22;3628;48.654;8.932;2023-10-08T07:30:15;14.60;99.90
7174;DHT22;3628;48.654;8.932;2023-10-08T07:32:52;14.90;99.90
7174;DHT22;3628;48.654;8.932;2023-10-08T07:35:20;15.20;99.90
7174;DHT22;3628;48.654;8.932;2023-10-08T07:37:45;15.60;99.90
7174;DHT22;3628;48.654;8.932;2023-10-08T07:40:13;15.90;99.90
7174;DHT22;3628;48.654;8.932;2023-10-08T07:42:39;16.20;99.90
7174;DHT22;3628;48.654;8.932;2023-10-08T07:45:05;16.50;99.90
7174;DHT22;3628;48.654;8.932;2023-10-08T07:47:32;16.70;99.90
7174;DHT22;3628;48.654;8.932;2023-10-08T07:49:58;17.00;99.90
7174;DHT22;3628;48.654;8.932;2023-10-08T07:52:24;17.20;99.90
7174;DHT22;3628;48.654;8.932;2023-10-08T07:54:50;17.40;99.90
7174;DHT22;3628;48.654;8.932;2023-10-08T07:57:16;17.60;99.90
7174;DHT22;3628;48.654;8.932;2023-10-08T07:59:46;17.60;99.90
7174;DHT22;3628;48.654;8.932;2023-10-08T08:02:13;17.60;99.90
7174;DHT22;3628;48.654;8.932;2023-10-08T08:04:39;17.60;99.90
7174;DHT22;3628;48.654;8.932;2023-10-08T08:07:06;17.60;99.90
7174;DHT22;3628;48.654;8.932;2023-10-08T08:09:32;17.60;99.90
7174;DHT22;3628;48.654;8.932;2023-10-08T08:12:06;17.70;99.90
7174;DHT22;3628;48.654;8.932;2023-10-08T08:14:36;17.70;99.90
7174;DHT22;3628;48.654;8.932;2023-10-08T08:17:05;17.80;99.90
7174;DHT22;3628;48.654;8.932;2023-10-08T08:19:46;17.80;99.90
7174;DHT22;3628;48.654;8.932;2023-10-08T08:22:19;17.90;99.90
7174;DHT22;3628;48.654;8.932;2023-10-08T08:24:52;17.90;99.90
7174;DHT22;3628;48.654;8.932;2023-10-08T08:27:28;18.10;99.90
7174;DHT22;3628;48.654;8.932;2023-10-08T08:29:57;18.20;99.90
7174;DHT22;3628;48.654;8.932;2023-10-08T08:32:35;18.40;99.90
7174;DHT22;3628;48.654;8.932;2023-10-08T08:35:05;18.70;99.90
7174;DHT22;3628;48.654;8.932;2023-10-08T08:37:33;18.90;99.90
7174;DHT22;3628;48.654;8.932;2023-10-08T08:40:02;19.20;99.90
7174;DHT22;3628;48.654;8.932;2023-10-08T08:42:36;19.50;98.30
7174;DHT22;3628;48.654;8.932;2023-10-08T08:45:06;19.70;98.00
7174;DHT22;3628;48.654;8.932;2023-10-08T08:47:38;20.00;97.70
7174;DHT22;3628;48.654;8.932;2023-10-08T08:50:07;20.40;97.20
7174;DHT22;3628;48.654;8.932;2023-10-08T08:52:39;20.70;95.50
7174;DHT22;3628;48.654;8.932;2023-10-08T08:55:06;21.00;94.60
7174;DHT22;3628;48.654;8.932;2023-10-08T08:57:43;21.30;93.40
7174;DHT22;3628;48.654;8.932;2023-10-08T09:00:12;21.50;92.90
7174;DHT22;3628;48.654;8.932;2023-10-08T09:02:39;21.70;91.90
7174;DHT22;3628;48.654;8.932;2023-10-08T09:05:05;21.90;91.10
7174;DHT22;3628;48.654;8.932;2023-10-08T09:08:02;22.10;91.10
7174;DHT22;3628;48.654;8.932;2023-10-08T09:10:29;22.30;89.50
7174;DHT22;3628;48.654;8.932;2023-10-08T09:12:59;22.50;88.60
7174;DHT22;3628;48.654;8.932;2023-10-08T09:15:28;22.80;88.00
7174;DHT22;3628;48.654;8.932;2023-10-08T09:17:57;23.10;87.00
7174;DHT22;3628;48.654;8.932;2023-10-08T09:20:26;23.30;85.70
7174;DHT22;3628;48.654;8.932;2023-10-08T09:23:10;23.50;84.20
7174;DHT22;3628;48.654;8.932;2023-10-08T09:25:43;23.80;81.10
7174;DHT22;3628;48.654;8.932;2023-10-08T09:28:09;23.90;80.20
7174;DHT22;3628;48.654;8.932;2023-10-08T09:30:38;24.10;79.00
7174;DHT22;3628;48.654;8.932;2023-10-08T09:33:09;24.20;77.90
7174;DHT22;3628;48.654;8.932;2023-10-08T09:35:36;24.30;77.30
7174;DHT22;3628;48.654;8.932;2023-10-08T09:38:06;24.60;77.30
7174;DHT22;3628;48.654;8.932;2023-10-08T09:40:39;25.00;75.40
7174;DHT22;3628;48.654;8.932;2023-10-08T09:43:08;25.40;75.10
7174;DHT22;3628;48.654;8.932;2023-10-08T09:45:35;25.70;73.20
7174;DHT22;3628;48.654;8.932;2023-10-08T09:48:03;26.10;71.30
7174;DHT22;3628;48.654;8.932;2023-10-08T09:50:32;26.30;69.50
7174;DHT22;3628;48.654;8.932;2023-10-08T09:53:13;26.30;67.80
7174;DHT22;3628;48.654;8.932;2023-10-08T09:55:49;26.30;67.60
7174;DHT22;3628;48.654;8.932;2023-10-08T09:58:17;26.20;68.20
7174;DHT22;3628;48.654;8.932;2023-10-08T10:00:43;26.20;68.00
7174;DHT22;3628;48.654;8.932;2023-10-08T10:03:10;26.20;68.00
7174;DHT22;3628;48.654;8.932;2023-10-08T10:05:38;26.20;68.00
7174;DHT22;3628;48.654;8.932;2023-10-08T10:08:04;26.10;67.30
7174;DHT22;3628;48.654;8.932;2023-10-08T10:10:36;26.10;67.00
7174;DHT22;3628;48.654;8.932;2023-10-08T10:13:06;26.10;67.10
7174;DHT22;3628;48.654;8.932;2023-10-08T10:15:36;26.10;66.40
7174;DHT22;3628;48.654;8.932;2023-10-08T10:18:12;26.20;67.10
7174;DHT22;3628;48.654;8.932;2023-10-08T10:20:44;26.30;66.80
7174;DHT22;3628;48.654;8.932;2023-10-08T10:23:41;26.30;66.80
7174;DHT22;3628;48.654;8.932;2023-10-08T10:26:27;26.30;66.50
7174;DHT22;3628;48.654;8.932;2023-10-08T10:31:47;26.80;65.60
7174;DHT22;3628;48.654;8.932;2023-10-08T10:34:14;27.10;66.30
7174;DHT22;3628;48.654;8.932;2023-10-08T10:36:45;27.20;64.90
7174;DHT22;3628;48.654;8.932;2023-10-08T10:39:17;27.50;64.50
7174;DHT22;3628;48.654;8.932;2023-10-08T10:41:52;27.70;63.70
7174;DHT22;3628;48.654;8.932;2023-10-08T10:44:28;27.90;63.10
7174;DHT22;3628;48.654;8.932;2023-10-08T10:46:56;28.10;61.20
7174;DHT22;3628;48.654;8.932;2023-10-08T10:49:41;28.20;60.40
7174;DHT22;3628;48.654;8.932;2023-10-08T10:52:24;28.30;60.00
7174;DHT22;3628;48.654;8.932;2023-10-08T10:55:22;28.60;60.10
7174;DHT22;3628;48.654;8.932;2023-10-08T10:57:57;28.80;58.40
7174;DHT22;3628;48.654;8.932;2023-10-08T11:00:30;28.70;58.00
7174;DHT22;3628;48.654;8.932;2023-10-08T11:02:59;28.90;57.20
7174;DHT22;3628;48.654;8.932;2023-10-08T11:05:32;29.10;57.00
7174;DHT22;3628;48.654;8.932;2023-10-08T11:08:05;29.20;57.30
7174;DHT22;3628;48.654;8.932;2023-10-08T11:10:39;29.10;57.30
7174;DHT22;3628;48.654;8.932;2023-10-08T11:13:09;29.10;57.00
7174;DHT22;3628;48.654;8.932;2023-10-08T11:15:42;28.90;56.60
7174;DHT22;3628;48.654;8.932;2023-10-08T11:18:09;28.90;56.60
7174;DHT22;3628;48.654;8.932;2023-10-08T11:20:35;28.70;56.60
7174;DHT22;3628;48.654;8.932;2023-10-08T11:23:32;28.70;57.10
7174;DHT22;3628;48.654;8.932;2023-10-08T11:26:02;28.60;56.90
7174;DHT22;3628;48.654;8.932;2023-10-08T11:28:33;28.70;57.40
7174;DHT22;3628;48.654;8.932;2023-10-08T11:31:05;28.80;57.30
7174;DHT22;3628;48.654;8.932;2023-10-08T11:33:39;28.80;57.00
7174;DHT22;3628;48.654;8.932;2023-10-08T11:36:06;28.60;56.10
7174;DHT22;3628;48.654;8.932;2023-10-08T11:38:42;28.40;56.50
7174;DHT22;3628;48.654;8.932;2023-10-08T11:41:11;28.50;56.80
7174;DHT22;3628;48.654;8.932;2023-10-08T11:43:52;28.70;57.10
7174;DHT22;3628;48.654;8.932;2023-10-08T11:46:29;28.70;56.50
7174;DHT22;3628;48.654;8.932;2023-10-08T11:48:58;28.70;56.30
7174;DHT22;3628;48.654;8.932;2023-10-08T11:51:32;28.90;56.90
7174;DHT22;3628;48.654;8.932;2023-10-08T11:53:59;28.90;56.60
7174;DHT22;3628;48.654;8.932;2023-10-08T11:56:26;28.90;56.10
7174;DHT22;3628;48.654;8.932;2023-10-08T11:58:53;28.80;56.00
7174;DHT22;3628;48.654;8.932;2023-10-08T12:01:22;28.60;56.10
7174;DHT22;3628;48.654;8.932;2023-10-08T12:03:49;28.60;56.10
7174;DHT22;3628;48.654;8.932;2023-10-08T12:06:15;28.30;56.70
7174;DHT22;3628;48.654;8.932;2023-10-08T12:08:46;27.90;56.40
7174;DHT22;3628;48.654;8.932;2023-10-08T12:11:15;27.70;56.30
7174;DHT22;3628;48.654;8.932;2023-10-08T12:13:42;27.70;55.80
7174;DHT22;3628;48.654;8.932;2023-10-08T12:16:14;27.80;56.30
7174;DHT22;3628;48.654;8.932;2023-10-08T12:18:49;28.00;56.40
7174;DHT22;3628;48.654;8.932;2023-10-08T12:21:21;28.20;57.20
7174;DHT22;3628;48.654;8.932;2023-10-08T12:23:47;28.40;58.00
7174;DHT22;3628;48.654;8.932;2023-10-08T12:26:15;28.70;58.20
7174;DHT22;3628;48.654;8.932;2023-10-08T12:28:47;28.90;57.60
7174;DHT22;3628;48.654;8.932;2023-10-08T12:31:19;29.00;56.60
7174;DHT22;3628;48.654;8.932;2023-10-08T12:33:52;28.90;56.10
7174;DHT22;3628;48.654;8.932;2023-10-08T12:36:23;28.90;56.30
7174;DHT22;3628;48.654;8.932;2023-10-08T12:38:49;28.90;56.10
7174;DHT22;3628;48.654;8.932;2023-10-08T12:41:15;28.90;55.80
7174;DHT22;3628;48.654;8.932;2023-10-08T12:43:44;28.90;55.10
7174;DHT22;3628;48.654;8.932;2023-10-08T12:46:12;29.00;54.60
7174;DHT22;3628;48.654;8.932;2023-10-08T12:48:44;29.10;54.70
7174;DHT22;3628;48.654;8.932;2023-10-08T12:51:13;29.20;55.00
7174;DHT22;3628;48.654;8.932;2023-10-08T12:53:39;29.10;54.40
7174;DHT22;3628;48.654;8.932;2023-10-08T12:56:07;29.20;54.90
7174;DHT22;3628;48.654;8.932;2023-10-08T12:58:40;29.20;53.90
7174;DHT22;3628;48.654;8.932;2023-10-08T13:01:10;29.20;54.60
7174;DHT22;3628;48.654;8.932;2023-10-08T13:03:40;29.40;54.80
7174;DHT22;3628;48.654;8.932;2023-10-08T13:06:17;29.50;54.40
7174;DHT22;3628;48.654;8.932;2023-10-08T13:08:55;29.40;53.80
7174;DHT22;3628;48.654;8.932;2023-10-08T13:11:22;29.50;53.80
7174;DHT22;3628;48.654;8.932;2023-10-08T13:13:51;29.40;53.70
7174;DHT22;3628;48.654;8.932;2023-10-08T13:16:18;29.50;53.60
7174;DHT22;3628;48.654;8.932;2023-10-08T13:18:44;29.60;53.40
7174;DHT22;3628;48.654;8.932;2023-10-08T13:21:10;29.60;52.80
7174;DHT22;3628;48.654;8.932;2023-10-08T13:23:36;29.60;52.60
7174;DHT22;3628;48.654;8.932;2023-10-08T13:26:02;29.70;52.90
7174;DHT22;3628;48.654;8.932;2023-10-08T13:28:35;29.70;53.10
7174;DHT22;3628;48.654;8.932;2023-10-08T13:31:04;29.60;52.30
7174;DHT22;3628;48.654;8.932;2023-10-08T13:36:07;29.90;52.60
7174;DHT22;3628;48.654;8.932;2023-10-08T13:38:37;29.90;51.20
7174;DHT22;3628;48.654;8.932;2023-10-08T13:41:04;29.80;51.60
7174;DHT22;3628;48.654;8.932;2023-10-08T13:43:35;29.90;51.00
7174;DHT22;3628;48.654;8.932;2023-10-08T13:46:05;29.90;50.90
7174;DHT22;3628;48.654;8.932;2023-10-08T13:48:33;29.60;50.80
7174;DHT22;3628;48.654;8.932;2023-10-08T13:51:04;29.60;51.30
7174;DHT22;3628;48.654;8.932;2023-10-08T13:53:31;29.60;51.10
7174;DHT22;3628;48.654;8.932;2023-10-08T13:56:01;29.50;51.30
7174;DHT22;3628;48.654;8.932;2023-10-08T13:58:28;29.50;50.10
7174;DHT22;3628;48.654;8.932;2023-10-08T14:00:57;29.30;50.40
7174;DHT22;3628;48.654;8.932;2023-10-08T14:03:26;29.40;50.90
7174;DHT22;3628;48.654;8.932;2023-10-08T14:05:51;29.50;51.40
7174;DHT22;3628;48.654;8.932;2023-10-08T14:08:18;29.50;51.50
7174;DHT22;3628;48.654;8.932;2023-10-08T14:10:45;29.50;51.60
7174;DHT22;3628;48.654;8.932;2023-10-08T14:13:10;29.30;50.40
7174;DHT22;3628;48.654;8.932;2023-10-08T14:15:36;29.20;50.60
7174;DHT22;3628;48.654;8.932;2023-10-08T14:18:10;29.00;47.70
7174;DHT22;3628;48.654;8.932;2023-10-08T14:20:39;28.80;47.50
7174;DHT22;3628;48.654;8.932;2023-10-08T14:23:06;28.50;47.30
7174;DHT22;3628;48.654;8.932;2023-10-08T14:25:32;28.30;47.20
7174;DHT22;3628;48.654;8.932;2023-10-08T14:28:00;28.30;47.30
7174;DHT22;3628;48.654;8.932;2023-10-08T14:30:31;28.00;47.50
7174;DHT22;3628;48.654;8.932;2023-10-08T14:32:58;27.90;48.00
7174;DHT22;3628;48.654;8.932;2023-10-08T14:35:24;27.80;48.50
7174;DHT22;3628;48.654;8.932;2023-10-08T14:38:09;27.60;48.40
7174;DHT22;3628;48.654;8.932;2023-10-08T14:40:53;27.50;49.40
7174;DHT22;3628;48.654;8.932;2023-10-08T14:43:37;27.40;49.60
7174;DHT22;3628;48.654;8.932;2023-10-08T14:46:03;27.50;50.00
7174;DHT22;3628;48.654;8.932;2023-10-08T14:48:32;27.50;49.20
7174;DHT22;3628;48.654;8.932;2023-10-08T14:51:01;27.30;48.70
7174;DHT22;3628;48.654;8.932;2023-10-08T14:53:27;27.10;49.50
7174;DHT22;3628;48.654;8.932;2023-10-08T14:55:53;27.10;49.70
7174;DHT22;3628;48.654;8.932;2023-10-08T14:58:19;26.90;49.80
7174;DHT22;3628;48.654;8.932;2023-10-08T15:00:44;26.80;50.30
7174;DHT22;3628;48.654;8.932;2023-10-08T15:03:10;26.70;50.30
7174;DHT22;3628;48.654;8.932;2023-10-08T15:05:38;26.50;50.50
7174;DHT22;3628;48.654;8.932;2023-10-08T15:08:06;26.50;50.70
7174;DHT22;3628;48.654;8.932;2023-10-08T15:10:35;26.50;50.80
7174;DHT22;3628;48.654;8.932;2023-10-08T15:13:01;26.40;51.70
7174;DHT22;3628;48.654;8.932;2023-10-08T15:15:26;26.20;52.10
7174;DHT22;3628;48.654;8.932;2023-10-08T15:18:00;26.20;52.60
7174;DHT22;3628;48.654;8.932;2023-10-08T15:20:27;26.00;52.30
7174;DHT22;3628;48.654;8.932;2023-10-08T15:22:57;26.10;53.10
7174;DHT22;3628;48.654;8.932;2023-10-08T15:25:23;25.90;53.20
7174;DHT22;3628;48.654;8.932;2023-10-08T15:27:48;25.70;53.10
7174;DHT22;3628;48.654;8.932;2023-10-08T15:30:16;25.50;53.20
7174;DHT22;3628;48.654;8.932;2023-10-08T15:32:44;25.40;53.70
7174;DHT22;3628;48.654;8.932;2023-10-08T15:35:10;25.40;54.10
7174;DHT22;3628;48.654;8.932;2023-10-08T15:37:37;25.30;54.30
7174;DHT22;3628;48.654;8.932;2023-10-08T15:40:07;25.30;54.80
7174;DHT22;3628;48.654;8.932;2023-10-08T15:42:34;25.10;55.10
7174;DHT22;3628;48.654;8.932;2023-10-08T15:45:01;25.10;55.60
7174;DHT22;3628;48.654;8.932;2023-10-08T15:47:28;25.10;55.90
7174;DHT22;3628;48.654;8.932;2023-10-08T15:49:53;25.10;55.90
7174;DHT22;3628;48.654;8.932;2023-10-08T15:52:19;25.00;55.90
7174;DHT22;3628;48.654;8.932;2023-10-08T15:54:45;24.90;55.30
7174;DHT22;3628;48.654;8.932;2023-10-08T15:57:11;24.80;55.80
7174;DHT22;3628;48.654;8.932;2023-10-08T15:59:37;24.80;56.00
7174;DHT22;3628;48.654;8.932;2023-10-08T16:02:02;24.70;56.00
7174;DHT22;3628;48.654;8.932;2023-10-08T16:04:28;24.70;56.00
7174;DHT22;3628;48.654;8.932;2023-10-08T16:06:58;24.70;56.50
7174;DHT22;3628;48.654;8.932;2023-10-08T16:09:24;24.70;56.50
7174;DHT22;3628;48.654;8.932;2023-10-08T16:11:49;24.60;56.40
7174;DHT22;3628;48.654;8.932;2023-10-08T16:14:15;24.50;56.50
7174;DHT22;3628;48.654;8.932;2023-10-08T16:16:43;24.40;56.90
7174;DHT22;3628;48.654;8.932;2023-10-08T16:19:15;24.40;57.10
7174;DHT22;3628;48.654;8.932;2023-10-08T16:21:42;24.40;57.20
7174;DHT22;3628;48.654;8.932;2023-10-08T16:24:10;24.40;57.50
7174;DHT22;3628;48.654;8.932;2023-10-08T16:26:41;24.40;57.80
7174;DHT22;3628;48.654;8.932;2023-10-08T16:29:08;24.30;57.90